createdAt,value
2022-09-16T00:05:20.044Z,4.535117056856187
2022-09-16T00:11:51.022Z,4.7792642140468224
2022-09-16T00:18:20.493Z,2.7357859531772575
2022-09-16T00:24:55.496Z,5.909698996655519
2022-09-16T00:31:25.443Z,3.849498327759197
2022-09-16T00:37:56.068Z,3.4949832775919734
2022-09-16T00:45:01.087Z,3.6187290969899664
2022-09-16T00:57:17.741Z,5.2675585284280935
2022-09-16T01:03:47.606Z,4.936454849498328
2022-09-16T01:10:18.008Z,3.9665551839464883
2022-09-16T01:22:40.386Z,4.8561872909699
2022-09-16T01:29:11.390Z,3.729096989966555
2022-09-16T01:35:39.789Z,6.2207357859531776
2022-09-16T01:44:12.966Z,6.160535117056856
2022-09-16T01:50:42.096Z,4.247491638795987
2022-09-16T01:57:11.284Z,3.939799331103679
2022-09-16T02:03:39.682Z,4.846153846153846
2022-09-16T02:10:08.293Z,3.869565217391304
2022-09-16T02:16:38.039Z,3.3612040133779266
2022-09-16T02:23:10.465Z,6.270903010033445
2022-09-16T02:34:34.695Z,5.270903010033445
2022-09-16T02:41:03.447Z,3.17056856187291
2022-09-16T02:50:41.259Z,2.789297658862876
2022-09-16T02:57:11.407Z,3.4581939799331103
2022-09-16T03:03:41.736Z,3.3612040133779266
2022-09-16T03:10:11.307Z,3.531772575250836
2022-09-16T03:21:15.390Z,4.719063545150502
2022-09-16T03:32:04.464Z,4.093645484949833
2022-09-16T03:38:33.974Z,2.7157190635451505
2022-09-16T03:45:02.638Z,1.6187290969899666
2022-09-16T03:51:31.376Z,3.983277591973244
2022-09-16T03:57:59.588Z,2.3812709030100336
2022-09-16T04:04:28.439Z,3.7357859531772575
2022-09-16T04:10:56.876Z,2.528428093645485
2022-09-16T04:23:52.148Z,4.183946488294314
2022-09-16T04:30:21.440Z,7.45819397993311
2022-09-16T04:36:50.352Z,3.297658862876254
2022-09-16T04:43:19.579Z,2.725752508361204
2022-09-16T04:49:50.034Z,3.7357859531772575
2022-09-16T04:56:20.117Z,4.090301003344481
2022-09-16T05:04:36.228Z,3.9565217391304346
2022-09-16T05:11:08.507Z,3.3946488294314383
2022-09-16T05:17:50.981Z,4.672240802675585
2022-09-16T05:24:31.098Z,2.468227424749164
2022-09-16T05:31:00.542Z,4.1003344481605355
2022-09-16T05:37:29.288Z,4.68561872909699
2022-09-16T05:43:58.231Z,4.478260869565218
2022-09-16T05:50:26.993Z,4.133779264214047
2022-09-16T05:56:54.584Z,4.357859531772576
2022-09-16T06:03:23.185Z,11.207357859531772
2022-09-16T06:09:52.387Z,4.448160535117057
2022-09-16T06:16:21.866Z,3.1036789297658864
2022-09-16T06:27:49.220Z,4.234113712374582
2022-09-16T06:34:20.649Z,3.9966555183946486
2022-09-16T06:40:55.444Z,5.086956521739131
2022-09-16T06:47:29.762Z,5.096989966555184
2022-09-16T06:54:07.137Z,4.826086956521739
2022-09-16T07:04:07.287Z,6.2441471571906355
2022-09-16T07:10:36.576Z,5.555183946488294
2022-09-16T07:17:07.080Z,5.130434782608695
2022-09-16T07:23:36.152Z,7.933110367892977
2022-09-16T07:30:09.131Z,5.722408026755853
2022-09-16T07:36:45.991Z,3.9665551839464883
2022-09-16T07:43:15.601Z,5.083612040133779
2022-09-16T07:49:49.524Z,2.331103678929766
2022-09-16T07:56:24.372Z,3.8862876254180603
2022-09-16T08:02:53.745Z,6.648829431438127
2022-09-16T08:09:41.110Z,4.739130434782608
2022-09-16T08:16:12.684Z,3.3344481605351173
2022-09-16T08:46:50.545Z,4.662207357859532
2022-09-16T08:53:18.961Z,4.792642140468227
2022-09-16T08:59:47.593Z,7.488294314381271
2022-09-16T09:06:16.690Z,6.966555183946488
2022-09-16T09:12:46.037Z,6.183946488294314
2022-09-16T09:19:15.755Z,6.5719063545150505
2022-09-16T09:25:43.915Z,5.936454849498328
2022-09-16T09:32:27.191Z,6.444816053511706
2022-09-16T09:38:55.534Z,6.852842809364549
2022-09-16T09:45:24.269Z,10.665551839464882
2022-09-16T09:57:25.793Z,11.568561872909699
2022-09-16T10:03:55.394Z,20.494983277591974
2022-09-16T10:10:26.623Z,10.759197324414716
2022-09-16T10:16:54.606Z,7.852842809364549
2022-09-16T10:23:27.606Z,8.304347826086957
2022-09-16T10:29:57.560Z,6.394648829431438
2022-09-16T10:36:25.816Z,5.39799331103679
2022-09-16T10:42:54.026Z,5.448160535117057
2022-09-16T10:49:21.717Z,5.016722408026756
2022-09-16T10:55:49.879Z,4.20066889632107
2022-09-16T11:02:18.872Z,4.919732441471572
2022-09-16T11:08:47.823Z,4.3076923076923075
2022-09-16T11:16:19.679Z,4.792642140468227
2022-09-16T11:23:13.903Z,2.0334448160535117
2022-09-16T11:30:02.840Z,2.9866220735785953
2022-09-16T11:36:30.329Z,3.1672240802675584
2022-09-16T11:42:59.634Z,2.849498327759197
2022-09-16T11:49:28.443Z,2.8963210702341136
2022-09-16T11:56:39.317Z,3.2441471571906355
2022-09-16T12:03:09.577Z,3.254180602006689
2022-09-16T12:09:40.150Z,5.280936454849498
2022-09-16T12:16:08.591Z,3.591973244147157
2022-09-16T12:27:29.736Z,5.802675585284281
2022-09-16T12:40:05.342Z,4.989966555183947
2022-09-16T12:46:34.333Z,4.214046822742475
2022-09-16T12:53:03.474Z,5.749163879598663
2022-09-16T13:04:36.808Z,4.581939799331104
2022-09-16T13:11:39.948Z,4.919732441471572
2022-09-16T13:18:20.016Z,6.8193979933110365
2022-09-16T13:24:48.411Z,6.752508361204013
2022-09-16T13:31:17.209Z,7.451505016722408
2022-09-16T13:37:47.001Z,8.525083612040135
2022-09-16T13:47:23.489Z,10.42809364548495
2022-09-16T13:53:52.212Z,9.488294314381271
2022-09-16T14:00:21.732Z,13.668896321070234
2022-09-16T14:06:50.060Z,13.137123745819398
2022-09-16T14:13:18.298Z,9.394648829431437
2022-09-16T14:28:30.133Z,8.331103678929766
2022-09-16T14:34:57.786Z,6.508361204013378
2022-09-16T14:41:25.328Z,8.143812709030101
2022-09-16T14:47:53.208Z,4.585284280936455
2022-09-16T14:54:21.170Z,6.7558528428093645
2022-09-16T15:00:49.203Z,6.280936454849498
2022-09-16T15:07:18.079Z,4.394648829431438
2022-09-16T15:13:47.538Z,4.555183946488294
2022-09-16T15:20:16.485Z,6.521739130434782
2022-09-16T15:26:54.939Z,5.264214046822742
2022-09-16T15:33:23.287Z,6.635451505016722
2022-09-16T15:39:50.798Z,6.448160535117057
2022-09-16T15:46:18.266Z,5.1806020066889635
2022-09-16T15:52:46.753Z,5.505016722408027
2022-09-16T15:59:15.555Z,7.31438127090301
2022-09-16T16:05:42.363Z,7.4280936454849495
2022-09-16T16:12:11.666Z,8.046822742474916
2022-09-16T16:19:04.351Z,6.260869565217392
2022-09-16T16:25:38.657Z,12.444816053511706
2022-09-16T16:32:05.691Z,18.237458193979933
2022-09-16T16:38:32.644Z,6.963210702341137
2022-09-16T16:45:00.239Z,8.983277591973245
2022-09-16T16:51:27.140Z,8.993311036789297
2022-09-16T17:04:35.423Z,22.54515050167224
2022-09-16T17:14:57.726Z,43.441471571906355
2022-09-16T17:21:25.037Z,53.187290969899664
2022-09-16T17:27:59.777Z,25.277591973244146
2022-09-16T17:34:26.806Z,3.709030100334448
2022-09-16T17:40:54.065Z,4.090301003344481
2022-09-16T17:48:42.804Z,20.217391304347824
2022-09-16T17:58:02.435Z,9.237458193979933
2022-09-16T18:04:29.040Z,9.016722408026755
2022-09-16T18:10:56.044Z,5.491638795986622
2022-09-16T18:18:01.511Z,8.96989966555184
2022-09-16T18:24:37.808Z,6.775919732441472
2022-09-16T18:33:50.674Z,19.02006688963211
2022-09-16T18:44:10.038Z,7.759197324414716
2022-09-16T18:51:41.513Z,5.879598662207358
2022-09-16T18:58:09.495Z,4.729096989966555
2022-09-16T19:04:37.523Z,3.1070234113712374
2022-09-16T19:11:05.406Z,4.6755852842809364
2022-09-16T19:17:33.225Z,5.882943143812709
2022-09-16T19:24:08.374Z,4.996655518394649
2022-09-16T19:30:35.106Z,7.177257525083612
2022-09-16T19:37:02.873Z,5.083612040133779
2022-09-16T19:51:39.544Z,4.0602006688963215
2022-09-16T19:58:06.618Z,4.54180602006689
2022-09-16T20:04:34.268Z,8.240802675585284
2022-09-16T20:11:01.580Z,6.8996655518394645
2022-09-16T20:17:28.267Z,6.591973244147157
2022-09-16T20:24:02.081Z,8.879598662207357
2022-09-16T20:30:34.211Z,5.451505016722408
2022-09-16T20:37:26.314Z,4.1806020066889635
2022-09-16T20:43:53.192Z,7.575250836120401
2022-09-16T20:50:21.379Z,4.909698996655519
2022-09-16T20:59:37.947Z,5.190635451505017
2022-09-16T21:06:05.365Z,3.8963210702341136
2022-09-16T21:25:41.939Z,8.327759197324415
2022-09-16T21:37:03.410Z,7.334448160535117
2022-09-16T21:44:12.904Z,7.585284280936455
2022-09-16T21:50:40.848Z,8.220735785953178
2022-09-16T21:57:09.523Z,6.147157190635451
2022-09-16T22:03:36.937Z,8.826086956521738
2022-09-16T22:10:04.503Z,12.080267558528428
2022-09-16T22:16:32.653Z,9.668896321070234
2022-09-16T22:23:05.915Z,7.916387959866221
2022-09-16T22:29:34.961Z,11.153846153846153
2022-09-16T22:36:03.021Z,9.016722408026755
2022-09-16T22:42:30.191Z,11.986622073578594
2022-09-16T22:48:57.374Z,29.501672240802677
2022-09-16T22:55:25.169Z,26.678929765886288
2022-09-16T23:01:52.181Z,19.53846153846154
2022-09-16T23:08:20.011Z,25.2809364548495
2022-09-16T23:14:48.228Z,18.441471571906355
2022-09-16T23:21:17.079Z,15.57190635451505
2022-09-16T23:27:44.160Z,17.96655518394649
2022-09-16T23:35:07.840Z,13.190635451505017
2022-09-16T23:41:35.021Z,10.869565217391305
2022-09-16T23:48:02.488Z,10.615384615384615
2022-09-16T23:54:30.155Z,12.08695652173913
